sensor_id;sensor_type;location;lat;lon;timestamp;P1;durP1;ratioP1;P2;durP2;ratioP2
14001;SDS011;7076;51.280;12.584;2023-10-08T00:04:46;5.30;;;3.00;;
14001;SDS011;7076;51.280;12.584;2023-10-08T00:09:52;8.45;;;2.72;;
14001;SDS011;7076;51.280;12.584;2023-10-08T00:14:55;5.25;;;2.70;;
14001;SDS011;7076;51.280;12.584;2023-10-08T00:20:02;4.47;;;2.72;;
14001;SDS011;7076;51.280;12.584;2023-10-08T00:25:06;6.13;;;2.85;;
14001;SDS011;7076;51.280;12.584;2023-10-08T00:30:13;5.63;;;3.03;;
14001;SDS011;7076;51.280;12.584;2023-10-08T00:35:21;7.13;;;3.17;;
14001;SDS011;7076;51.280;12.584;2023-10-08T00:40:24;6.68;;;3.70;;
14001;SDS011;7076;51.280;12.584;2023-10-08T00:45:27;4.43;;;2.90;;
14001;SDS011;7076;51.280;12.584;2023-10-08T00:50:33;4.72;;;2.75;;
14001;SDS011;7076;51.280;12.584;2023-10-08T00:55:44;5.57;;;2.97;;
14001;SDS011;7076;51.280;12.584;2023-10-08T01:00:54;6.75;;;3.13;;
14001;SDS011;7076;51.280;12.584;2023-10-08T01:06:02;4.95;;;2.85;;
14001;SDS011;7076;51.280;12.584;2023-10-08T01:11:16;6.78;;;2.95;;
14001;SDS011;7076;51.280;12.584;2023-10-08T01:16:20;4.40;;;2.78;;
14001;SDS011;7076;51.280;12.584;2023-10-08T01:21:25;6.78;;;2.90;;
14001;SDS011;7076;51.280;12.584;2023-10-08T01:26:37;5.05;;;3.05;;
14001;SDS011;7076;51.280;12.584;2023-10-08T01:31:42;4.72;;;3.20;;
14001;SDS011;7076;51.280;12.584;2023-10-08T01:36:45;7.32;;;3.65;;
14001;SDS011;7076;51.280;12.584;2023-10-08T01:41:49;6.97;;;3.50;;
14001;SDS011;7076;51.280;12.584;2023-10-08T01:46:52;11.02;;;3.50;;
14001;SDS011;7076;51.280;12.584;2023-10-08T01:51:59;6.55;;;2.92;;
14001;SDS011;7076;51.280;12.584;2023-10-08T01:57:09;2.65;;;1.90;;
14001;SDS011;7076;51.280;12.584;2023-10-08T02:02:14;4.28;;;1.40;;
14001;SDS011;7076;51.280;12.584;2023-10-08T02:07:17;1.40;;;0.60;;
14001;SDS011;7076;51.280;12.584;2023-10-08T02:12:21;0.30;;;0.30;;
14001;SDS011;7076;51.280;12.584;2023-10-08T02:17:24;0.20;;;0.20;;
14001;SDS011;7076;51.280;12.584;2023-10-08T02:22:27;0.17;;;0.17;;
14001;SDS011;7076;51.280;12.584;2023-10-08T02:27:32;0.20;;;0.20;;
14001;SDS011;7076;51.280;12.584;2023-10-08T02:32:35;0.20;;;0.20;;
14001;SDS011;7076;51.280;12.584;2023-10-08T02:37:39;0.20;;;0.20;;
14001;SDS011;7076;51.280;12.584;2023-10-08T02:42:44;0.20;;;0.20;;
14001;SDS011;7076;51.280;12.584;2023-10-08T02:47:47;0.20;;;0.20;;
14001;SDS011;7076;51.280;12.584;2023-10-08T02:52:50;0.20;;;0.20;;
14001;SDS011;7076;51.280;12.584;2023-10-08T02:57:54;0.22;;;0.22;;
14001;SDS011;7076;51.280;12.584;2023-10-08T03:02:58;0.20;;;0.20;;
14001;SDS011;7076;51.280;12.584;2023-10-08T03:08:03;0.20;;;0.20;;
14001;SDS011;7076;51.280;12.584;2023-10-08T03:13:13;0.15;;;0.15;;
14001;SDS011;7076;51.280;12.584;2023-10-08T03:18:17;0.13;;;0.13;;
14001;SDS011;7076;51.280;12.584;2023-10-08T03:23:23;0.68;;;0.20;;
14001;SDS011;7076;51.280;12.584;2023-10-08T03:28:29;0.10;;;0.10;;
14001;SDS011;7076;51.280;12.584;2023-10-08T03:33:36;0.20;;;0.20;;
14001;SDS011;7076;51.280;12.584;2023-10-08T03:38:39;0.30;;;0.30;;
14001;SDS011;7076;51.280;12.584;2023-10-08T03:43:54;0.30;;;0.30;;
14001;SDS011;7076;51.280;12.584;2023-10-08T03:49:02;0.13;;;0.13;;
14001;SDS011;7076;51.280;12.584;2023-10-08T03:54:08;0.20;;;0.20;;
14001;SDS011;7076;51.280;12.584;2023-10-08T03:59:20;0.20;;;0.20;;
14001;SDS011;7076;51.280;12.584;2023-10-08T04:04:32;0.20;;;0.20;;
14001;SDS011;7076;51.280;12.584;2023-10-08T04:09:50;0.30;;;0.30;;
14001;SDS011;7076;51.280;12.584;2023-10-08T04:15:02;0.40;;;0.40;;
14001;SDS011;7076;51.280;12.584;2023-10-08T04:20:09;0.68;;;0.30;;
14001;SDS011;7076;51.280;12.584;2023-10-08T04:25:34;0.95;;;0.38;;
14001;SDS011;7076;51.280;12.584;2023-10-08T04:30:38;1.73;;;0.55;;
14001;SDS011;7076;51.280;12.584;2023-10-08T04:35:43;3.30;;;0.93;;
14001;SDS011;7076;51.280;12.584;2023-10-08T04:40:53;1.98;;;0.60;;
14001;SDS011;7076;51.280;12.584;2023-10-08T04:45:57;2.58;;;0.70;;
14001;SDS011;7076;51.280;12.584;2023-10-08T04:51:01;3.25;;;0.80;;
14001;SDS011;7076;51.280;12.584;2023-10-08T04:56:06;4.30;;;0.93;;
14001;SDS011;7076;51.280;12.584;2023-10-08T05:01:16;2.13;;;0.60;;
14001;SDS011;7076;51.280;12.584;2023-10-08T05:06:20;0.70;;;0.70;;
14001;SDS011;7076;51.280;12.584;2023-10-08T05:11:40;0.50;;;0.50;;
14001;SDS011;7076;51.280;12.584;2023-10-08T05:17:09;1.67;;;0.80;;
14001;SDS011;7076;51.280;12.584;2023-10-08T05:22:13;0.65;;;0.47;;
14001;SDS011;7076;51.280;12.584;2023-10-08T05:27:35;1.35;;;0.60;;
14001;SDS011;7076;51.280;12.584;2023-10-08T05:32:58;4.88;;;0.60;;
14001;SDS011;7076;51.280;12.584;2023-10-08T05:38:25;1.30;;;0.70;;
14001;SDS011;7076;51.280;12.584;2023-10-08T05:43:50;0.50;;;0.50;;
14001;SDS011;7076;51.280;12.584;2023-10-08T05:49:14;1.02;;;0.70;;
14001;SDS011;7076;51.280;12.584;2023-10-08T05:54:40;1.23;;;0.60;;
14001;SDS011;7076;51.280;12.584;2023-10-08T06:00:10;1.17;;;0.50;;
14001;SDS011;7076;51.280;12.584;2023-10-08T06:05:34;1.25;;;0.60;;
14001;SDS011;7076;51.280;12.584;2023-10-08T06:10:44;0.80;;;0.70;;
14001;SDS011;7076;51.280;12.584;2023-10-08T06:15:58;0.60;;;0.60;;
14001;SDS011;7076;51.280;12.584;2023-10-08T06:21:11;1.00;;;0.70;;
14001;SDS011;7076;51.280;12.584;2023-10-08T06:26:16;0.77;;;0.52;;
14001;SDS011;7076;51.280;12.584;2023-10-08T06:31:22;0.93;;;0.63;;
14001;SDS011;7076;51.280;12.584;2023-10-08T06:36:28;1.08;;;0.70;;
14001;SDS011;7076;51.280;12.584;2023-10-08T06:41:34;1.85;;;0.60;;
14001;SDS011;7076;51.280;12.584;2023-10-08T06:46:51;0.50;;;0.50;;
14001;SDS011;7076;51.280;12.584;2023-10-08T06:51:57;1.33;;;0.73;;
14001;SDS011;7076;51.280;12.584;2023-10-08T06:57:00;0.68;;;0.50;;
14001;SDS011;7076;51.280;12.584;2023-10-08T07:02:03;1.40;;;0.80;;
14001;SDS011;7076;51.280;12.584;2023-10-08T07:07:11;1.02;;;1.00;;
14001;SDS011;7076;51.280;12.584;2023-10-08T07:12:20;1.35;;;0.80;;
14001;SDS011;7076;51.280;12.584;2023-10-08T07:17:26;0.80;;;0.52;;
14001;SDS011;7076;51.280;12.584;2023-10-08T07:22:43;1.40;;;0.77;;
14001;SDS011;7076;51.280;12.584;2023-10-08T07:27:46;2.88;;;0.90;;
14001;SDS011;7076;51.280;12.584;2023-10-08T07:32:49;2.90;;;0.80;;
14001;SDS011;7076;51.280;12.584;2023-10-08T07:37:53;3.92;;;0.80;;
14001;SDS011;7076;51.280;12.584;2023-10-08T07:42:56;1.75;;;1.08;;
14001;SDS011;7076;51.280;12.584;2023-10-08T07:48:01;1.45;;;0.93;;
14001;SDS011;7076;51.280;12.584;2023-10-08T07:53:09;5.07;;;1.00;;
14001;SDS011;7076;51.280;12.584;2023-10-08T07:58:19;4.40;;;0.98;;
14001;SDS011;7076;51.280;12.584;2023-10-08T08:03:22;3.38;;;1.02;;
14001;SDS011;7076;51.280;12.584;2023-10-08T08:08:27;2.97;;;1.90;;
14001;SDS011;7076;51.280;12.584;2023-10-08T08:13:31;2.95;;;1.00;;
14001;SDS011;7076;51.280;12.584;2023-10-08T08:18:36;3.30;;;0.93;;
14001;SDS011;7076;51.280;12.584;2023-10-08T08:23:41;4.93;;;0.90;;
14001;SDS011;7076;51.280;12.584;2023-10-08T08:28:49;3.58;;;0.95;;
14001;SDS011;7076;51.280;12.584;2023-10-08T08:33:53;3.70;;;0.98;;
14001;SDS011;7076;51.280;12.584;2023-10-08T08:38:59;5.55;;;1.42;;
14001;SDS011;7076;51.280;12.584;2023-10-08T08:44:02;2.85;;;1.13;;
14001;SDS011;7076;51.280;12.584;2023-10-08T08:49:08;5.18;;;1.20;;
14001;SDS011;7076;51.280;12.584;2023-10-08T08:54:13;5.07;;;1.15;;
14001;SDS011;7076;51.280;12.584;2023-10-08T08:59:17;3.58;;;1.55;;
14001;SDS011;7076;51.280;12.584;2023-10-08T09:04:27;2.13;;;1.10;;
14001;SDS011;7076;51.280;12.584;2023-10-08T09:09:32;2.78;;;1.00;;
14001;SDS011;7076;51.280;12.584;2023-10-08T09:14:35;5.75;;;1.50;;
14001;SDS011;7076;51.280;12.584;2023-10-08T09:19:39;4.20;;;1.30;;
14001;SDS011;7076;51.280;12.584;2023-10-08T09:24:43;5.90;;;1.58;;
14001;SDS011;7076;51.280;12.584;2023-10-08T09:29:48;3.75;;;1.30;;
14001;SDS011;7076;51.280;12.584;2023-10-08T09:34:52;2.25;;;1.20;;
14001;SDS011;7076;51.280;12.584;2023-10-08T09:39:56;4.00;;;1.33;;
14001;SDS011;7076;51.280;12.584;2023-10-08T09:45:00;9.68;;;5.65;;
14001;SDS011;7076;51.280;12.584;2023-10-08T09:50:07;4.15;;;1.48;;
14001;SDS011;7076;51.280;12.584;2023-10-08T09:55:15;2.28;;;1.30;;
14001;SDS011;7076;51.280;12.584;2023-10-08T10:00:21;7.97;;;2.22;;
14001;SDS011;7076;51.280;12.584;2023-10-08T10:05:32;5.82;;;1.40;;
14001;SDS011;7076;51.280;12.584;2023-10-08T10:10:37;2.85;;;1.60;;
14001;SDS011;7076;51.280;12.584;2023-10-08T10:15:41;3.08;;;1.75;;
14001;SDS011;7076;51.280;12.584;2023-10-08T10:20:51;4.65;;;1.63;;
14001;SDS011;7076;51.280;12.584;2023-10-08T10:25:58;3.67;;;1.20;;
14001;SDS011;7076;51.280;12.584;2023-10-08T10:31:00;1.48;;;1.23;;
14001;SDS011;7076;51.280;12.584;2023-10-08T10:36:05;3.63;;;1.75;;
14001;SDS011;7076;51.280;12.584;2023-10-08T10:41:11;4.05;;;1.55;;
14001;SDS011;7076;51.280;12.584;2023-10-08T10:46:17;4.63;;;1.60;;
14001;SDS011;7076;51.280;12.584;2023-10-08T10:51:32;5.07;;;2.05;;
14001;SDS011;7076;51.280;12.584;2023-10-08T10:56:37;6.70;;;1.88;;
14001;SDS011;7076;51.280;12.584;2023-10-08T11:01:45;4.53;;;1.80;;
14001;SDS011;7076;51.280;12.584;2023-10-08T11:06:54;5.72;;;2.13;;
14001;SDS011;7076;51.280;12.584;2023-10-08T11:12:01;2.50;;;2.22;;
14001;SDS011;7076;51.280;12.584;2023-10-08T11:17:12;6.80;;;2.40;;
14001;SDS011;7076;51.280;12.584;2023-10-08T11:22:16;5.68;;;1.80;;
14001;SDS011;7076;51.280;12.584;2023-10-08T11:27:21;4.65;;;2.08;;
14001;SDS011;7076;51.280;12.584;2023-10-08T11:32:31;4.80;;;2.08;;
14001;SDS011;7076;51.280;12.584;2023-10-08T11:37:35;4.55;;;1.60;;
14001;SDS011;7076;51.280;12.584;2023-10-08T11:42:39;5.03;;;1.80;;
14001;SDS011;7076;51.280;12.584;2023-10-08T11:47:45;6.10;;;2.17;;
14001;SDS011;7076;51.280;12.584;2023-10-08T11:52:50;5.85;;;1.70;;
14001;SDS011;7076;51.280;12.584;2023-10-08T11:57:56;5.00;;;1.73;;
14001;SDS011;7076;51.280;12.584;2023-10-08T12:02:59;3.92;;;1.80;;
14001;SDS011;7076;51.280;12.584;2023-10-08T12:08:04;4.18;;;1.80;;
14001;SDS011;7076;51.280;12.584;2023-10-08T12:13:11;3.67;;;1.73;;
14001;SDS011;7076;51.280;12.584;2023-10-08T12:18:14;4.47;;;1.70;;
14001;SDS011;7076;51.280;12.584;2023-10-08T12:23:26;4.50;;;1.73;;
14001;SDS011;7076;51.280;12.584;2023-10-08T12:28:32;4.15;;;1.38;;
14001;SDS011;7076;51.280;12.584;2023-10-08T12:33:35;3.25;;;1.52;;
14001;SDS011;7076;51.280;12.584;2023-10-08T12:38:39;4.43;;;1.50;;
14001;SDS011;7076;51.280;12.584;2023-10-08T12:43:45;3.65;;;1.50;;
14001;SDS011;7076;51.280;12.584;2023-10-08T12:48:48;4.75;;;1.40;;
14001;SDS011;7076;51.280;12.584;2023-10-08T12:53:54;3.25;;;1.67;;
14001;SDS011;7076;51.280;12.584;2023-10-08T12:59:09;5.15;;;1.98;;
14001;SDS011;7076;51.280;12.584;2023-10-08T13:04:22;4.10;;;1.80;;
14001;SDS011;7076;51.280;12.584;2023-10-08T13:09:30;2.70;;;1.52;;
14001;SDS011;7076;51.280;12.584;2023-10-08T13:14:35;4.32;;;1.77;;
14001;SDS011;7076;51.280;12.584;2023-10-08T13:19:38;3.35;;;1.50;;
14001;SDS011;7076;51.280;12.584;2023-10-08T13:24:40;3.45;;;1.65;;
14001;SDS011;7076;51.280;12.584;2023-10-08T13:29:45;7.10;;;1.85;;
14001;SDS011;7076;51.280;12.584;2023-10-08T13:34:47;4.10;;;2.13;;
14001;SDS011;7076;51.280;12.584;2023-10-08T13:39:50;10.02;;;1.70;;
14001;SDS011;7076;51.280;12.584;2023-10-08T13:44:55;4.15;;;2.30;;
14001;SDS011;7076;51.280;12.584;2023-10-08T13:50:01;5.13;;;2.20;;
14001;SDS011;7076;51.280;12.584;2023-10-08T13:55:12;1.80;;;1.40;;
14001;SDS011;7076;51.280;12.584;2023-10-08T14:00:16;5.75;;;1.58;;
14001;SDS011;7076;51.280;12.584;2023-10-08T14:05:27;4.97;;;1.88;;
14001;SDS011;7076;51.280;12.584;2023-10-08T14:10:31;6.57;;;1.73;;
14001;SDS011;7076;51.280;12.584;2023-10-08T14:15:35;5.43;;;2.00;;
14001;SDS011;7076;51.280;12.584;2023-10-08T14:20:45;6.13;;;1.90;;
14001;SDS011;7076;51.280;12.584;2023-10-08T14:25:55;4.20;;;2.10;;
14001;SDS011;7076;51.280;12.584;2023-10-08T14:31:06;5.35;;;2.00;;
14001;SDS011;7076;51.280;12.584;2023-10-08T14:36:09;4.75;;;2.00;;
14001;SDS011;7076;51.280;12.584;2023-10-08T14:41:30;3.15;;;1.75;;
14001;SDS011;7076;51.280;12.584;2023-10-08T14:46:52;2.85;;;2.10;;
14001;SDS011;7076;51.280;12.584;2023-10-08T14:51:57;3.88;;;2.08;;
14001;SDS011;7076;51.280;12.584;2023-10-08T14:57:00;4.38;;;2.00;;
14001;SDS011;7076;51.280;12.584;2023-10-08T15:02:06;4.43;;;2.03;;
14001;SDS011;7076;51.280;12.584;2023-10-08T15:07:09;4.05;;;1.80;;
14001;SDS011;7076;51.280;12.584;2023-10-08T15:12:12;3.47;;;2.50;;
14001;SDS011;7076;51.280;12.584;2023-10-08T15:17:19;3.00;;;1.83;;
14001;SDS011;7076;51.280;12.584;2023-10-08T15:22:22;2.88;;;2.03;;
14001;SDS011;7076;51.280;12.584;2023-10-08T15:27:25;8.20;;;2.83;;
14001;SDS011;7076;51.280;12.584;2023-10-08T15:32:32;4.65;;;2.47;;
14001;SDS011;7076;51.280;12.584;2023-10-08T15:37:36;5.55;;;2.30;;
14001;SDS011;7076;51.280;12.584;2023-10-08T15:42:39;4.95;;;2.55;;
14001;SDS011;7076;51.280;12.584;2023-10-08T15:47:43;3.38;;;2.30;;
14001;SDS011;7076;51.280;12.584;2023-10-08T15:52:46;3.08;;;2.30;;
14001;SDS011;7076;51.280;12.584;2023-10-08T15:57:49;4.13;;;2.20;;
14001;SDS011;7076;51.280;12.584;2023-10-08T16:02:53;4.68;;;2.40;;
14001;SDS011;7076;51.280;12.584;2023-10-08T16:07:57;5.38;;;2.47;;
14001;SDS011;7076;51.280;12.584;2023-10-08T16:13:00;5.38;;;2.65;;
14001;SDS011;7076;51.280;12.584;2023-10-08T16:18:05;6.65;;;3.13;;
14001;SDS011;7076;51.280;12.584;2023-10-08T16:23:08;2.90;;;2.60;;
14001;SDS011;7076;51.280;12.584;2023-10-08T16:28:13;4.05;;;2.47;;
14001;SDS011;7076;51.280;12.584;2023-10-08T16:33:21;4.43;;;2.28;;
14001;SDS011;7076;51.280;12.584;2023-10-08T16:38:24;3.53;;;2.88;;
14001;SDS011;7076;51.280;12.584;2023-10-08T16:43:27;4.13;;;2.25;;
14001;SDS011;7076;51.280;12.584;2023-10-08T16:48:32;3.05;;;2.22;;
14001;SDS011;7076;51.280;12.584;2023-10-08T16:53:35;4.82;;;2.17;;
14001;SDS011;7076;51.280;12.584;2023-10-08T16:58:38;2.97;;;2.65;;
14001;SDS011;7076;51.280;12.584;2023-10-08T17:03:42;2.40;;;2.20;;
14001;SDS011;7076;51.280;12.584;2023-10-08T17:08:45;3.72;;;2.33;;
14001;SDS011;7076;51.280;12.584;2023-10-08T17:13:48;3.03;;;2.70;;
14001;SDS011;7076;51.280;12.584;2023-10-08T17:18:52;3.70;;;3.15;;
14001;SDS011;7076;51.280;12.584;2023-10-08T17:23:55;4.93;;;3.15;;
14001;SDS011;7076;51.280;12.584;2023-10-08T17:28:59;4.43;;;3.00;;
14001;SDS011;7076;51.280;12.584;2023-10-08T17:34:05;5.10;;;2.80;;
14001;SDS011;7076;51.280;12.584;2023-10-08T17:39:08;6.18;;;3.10;;
14001;SDS011;7076;51.280;12.584;2023-10-08T17:44:18;5.68;;;2.60;;
14001;SDS011;7076;51.280;12.584;2023-10-08T17:49:22;2.92;;;2.53;;
14001;SDS011;7076;51.280;12.584;2023-10-08T17:54:25;4.47;;;2.97;;
14001;SDS011;7076;51.280;12.584;2023-10-08T17:59:28;4.53;;;2.40;;
14001;SDS011;7076;51.280;12.584;2023-10-08T18:04:34;8.13;;;4.82;;
14001;SDS011;7076;51.280;12.584;2023-10-08T18:09:39;4.43;;;2.90;;
14001;SDS011;7076;51.280;12.584;2023-10-08T18:14:44;4.13;;;2.53;;
14001;SDS011;7076;51.280;12.584;2023-10-08T18:19:51;6.00;;;2.80;;
14001;SDS011;7076;51.280;12.584;2023-10-08T18:24:54;4.00;;;2.85;;
14001;SDS011;7076;51.280;12.584;2023-10-08T18:29:57;4.57;;;2.60;;
14001;SDS011;7076;51.280;12.584;2023-10-08T18:35:01;5.00;;;3.05;;
14001;SDS011;7076;51.280;12.584;2023-10-08T18:40:07;5.93;;;2.83;;
14001;SDS011;7076;51.280;12.584;2023-10-08T18:45:15;3.67;;;3.00;;
14001;SDS011;7076;51.280;12.584;2023-10-08T18:50:21;3.95;;;2.85;;
14001;SDS011;7076;51.280;12.584;2023-10-08T18:55:24;3.08;;;2.20;;
14001;SDS011;7076;51.280;12.584;2023-10-08T19:00:47;9.95;;;4.55;;
14001;SDS011;7076;51.280;12.584;2023-10-08T19:05:52;6.78;;;5.32;;
14001;SDS011;7076;51.280;12.584;2023-10-08T19:10:58;9.25;;;4.85;;
14001;SDS011;7076;51.280;12.584;2023-10-08T19:16:01;5.47;;;3.85;;
14001;SDS011;7076;51.280;12.584;2023-10-08T19:21:06;5.38;;;3.40;;
14001;SDS011;7076;51.280;12.584;2023-10-08T19:26:10;9.55;;;3.67;;
14001;SDS011;7076;51.280;12.584;2023-10-08T19:36:54;3.28;;;2.97;;
14001;SDS011;7076;51.280;12.584;2023-10-08T19:41:57;5.18;;;3.58;;
14001;SDS011;7076;51.280;12.584;2023-10-08T19:47:00;5.18;;;3.97;;
14001;SDS011;7076;51.280;12.584;2023-10-08T19:52:05;5.10;;;3.60;;
14001;SDS011;7076;51.280;12.584;2023-10-08T19:57:08;6.20;;;3.50;;
14001;SDS011;7076;51.280;12.584;2023-10-08T20:02:11;5.82;;;3.40;;
14001;SDS011;7076;51.280;12.584;2023-10-08T20:07:15;4.78;;;3.58;;
14001;SDS011;7076;51.280;12.584;2023-10-08T20:12:18;5.43;;;3.17;;
14001;SDS011;7076;51.280;12.584;2023-10-08T20:17:23;4.72;;;3.50;;
14001;SDS011;7076;51.280;12.584;2023-10-08T20:22:27;9.13;;;3.92;;
14001;SDS011;7076;51.280;12.584;2023-10-08T20:27:30;9.15;;;3.53;;
14001;SDS011;7076;51.280;12.584;2023-10-08T20:32:33;9.18;;;3.88;;
14001;SDS011;7076;51.280;12.584;2023-10-08T20:37:38;4.50;;;3.00;;
14001;SDS011;7076;51.280;12.584;2023-10-08T20:42:42;4.20;;;3.35;;
14001;SDS011;7076;51.280;12.584;2023-10-08T20:47:46;5.25;;;3.67;;
14001;SDS011;7076;51.280;12.584;2023-10-08T20:52:51;8.23;;;4.22;;
14001;SDS011;7076;51.280;12.584;2023-10-08T20:57:54;7.35;;;3.65;;
14001;SDS011;7076;51.280;12.584;2023-10-08T21:02:58;7.32;;;4.32;;
14001;SDS011;7076;51.280;12.584;2023-10-08T21:08:05;7.75;;;4.88;;
14001;SDS011;7076;51.280;12.584;2023-10-08T21:13:08;8.20;;;4.45;;
14001;SDS011;7076;51.280;12.584;2023-10-08T21:18:11;6.15;;;4.10;;
14001;SDS011;7076;51.280;12.584;2023-10-08T21:23:16;6.05;;;4.45;;
14001;SDS011;7076;51.280;12.584;2023-10-08T21:28:19;5.82;;;4.10;;
14001;SDS011;7076;51.280;12.584;2023-10-08T21:33:22;7.00;;;3.90;;
14001;SDS011;7076;51.280;12.584;2023-10-08T21:38:28;7.07;;;4.00;;
14001;SDS011;7076;51.280;12.584;2023-10-08T21:43:31;5.57;;;4.10;;
14001;SDS011;7076;51.280;12.584;2023-10-08T21:48:34;4.80;;;4.15;;
14001;SDS011;7076;51.280;12.584;2023-10-08T21:53:39;5.65;;;4.13;;
14001;SDS011;7076;51.280;12.584;2023-10-08T21:58:42;5.10;;;3.45;;
14001;SDS011;7076;51.280;12.584;2023-10-08T22:03:47;5.45;;;3.70;;
14001;SDS011;7076;51.280;12.584;2023-10-08T22:08:51;6.43;;;3.65;;
14001;SDS011;7076;51.280;12.584;2023-10-08T22:13:54;10.20;;;3.55;;
14001;SDS011;7076;51.280;12.584;2023-10-08T22:18:57;5.22;;;3.65;;
14001;SDS011;7076;51.280;12.584;2023-10-08T22:24:08;4.25;;;3.50;;
14001;SDS011;7076;51.280;12.584;2023-10-08T22:29:12;3.97;;;3.10;;
14001;SDS011;7076;51.280;12.584;2023-10-08T22:34:17;4.82;;;3.10;;
14001;SDS011;7076;51.280;12.584;2023-10-08T22:39:31;4.65;;;2.75;;
14001;SDS011;7076;51.280;12.584;2023-10-08T22:44:35;3.75;;;2.65;;
14001;SDS011;7076;51.280;12.584;2023-10-08T22:49:37;5.90;;;2.88;;
14001;SDS011;7076;51.280;12.584;2023-10-08T22:54:42;3.45;;;3.03;;
14001;SDS011;7076;51.280;12.584;2023-10-08T22:59:46;4.50;;;3.05;;
14001;SDS011;7076;51.280;12.584;2023-10-08T23:04:50;2.95;;;2.70;;
14001;SDS011;7076;51.280;12.584;2023-10-08T23:09:56;11.70;;;3.20;;
14001;SDS011;7076;51.280;12.584;2023-10-08T23:15:01;5.18;;;3.97;;
14001;SDS011;7076;51.280;12.584;2023-10-08T23:20:05;6.78;;;3.50;;
14001;SDS011;7076;51.280;12.584;2023-10-08T23:25:14;4.90;;;3.53;;
14001;SDS011;7076;51.280;12.584;2023-10-08T23:30:17;4.15;;;3.50;;
14001;SDS011;7076;51.280;12.584;2023-10-08T23:35:21;5.32;;;3.47;;
14001;SDS011;7076;51.280;12.584;2023-10-08T23:40:28;6.55;;;3.38;;
14001;SDS011;7076;51.280;12.584;2023-10-08T23:45:32;5.93;;;3.50;;
14001;SDS011;7076;51.280;12.584;2023-10-08T23:50:42;5.90;;;3.60;;
14001;SDS011;7076;51.280;12.584;2023-10-08T23:55:46;5.22;;;3.28;;
